createdAt,value
2017-07-19T00:01:04.662Z,98.20
2017-07-19T00:03:32.132Z,98.20
2017-07-19T00:05:59.633Z,98.20
2017-07-19T00:08:27.489Z,98.20
2017-07-19T00:10:55.338Z,98.20
2017-07-19T00:13:22.836Z,98.20
2017-07-19T00:15:50.302Z,98.20
2017-07-19T00:18:17.767Z,98.20
2017-07-19T00:20:45.272Z,98.20
2017-07-19T00:23:13.126Z,98.20
2017-07-19T00:25:40.579Z,98.20
2017-07-19T00:28:08.073Z,98.20
2017-07-19T00:30:35.531Z,98.20
2017-07-19T00:33:02.983Z,98.20
2017-07-19T00:35:30.511Z,98.20
2017-07-19T00:37:57.969Z,98.20
2017-07-19T00:40:25.836Z,98.20
2017-07-19T00:42:53.731Z,98.20
2017-07-19T00:45:21.192Z,98.20
2017-07-19T00:47:48.645Z,98.20
2017-07-19T00:50:16.394Z,98.20
2017-07-19T00:52:43.851Z,98.20
2017-07-19T00:55:11.318Z,98.20
2017-07-19T00:57:39.136Z,98.20
2017-07-19T01:00:06.591Z,98.20
2017-07-19T01:02:34.039Z,98.20
2017-07-19T01:05:01.707Z,98.20
2017-07-19T01:07:29.163Z,98.20
2017-07-19T01:09:56.614Z,98.20
2017-07-19T01:12:24.203Z,98.20
2017-07-19T01:14:52.051Z,98.20
2017-07-19T01:17:19.910Z,98.20
2017-07-19T01:19:47.800Z,98.20
2017-07-19T01:22:15.260Z,98.20
2017-07-19T01:24:42.725Z,98.20
2017-07-19T01:27:10.301Z,98.20
2017-07-19T01:29:38.546Z,98.20
2017-07-19T01:32:06.016Z,98.20
2017-07-19T01:34:33.515Z,98.20
2017-07-19T01:37:00.966Z,98.20
2017-07-19T01:39:28.432Z,98.20
2017-07-19T01:41:55.936Z,98.20
2017-07-19T01:44:23.412Z,98.20
2017-07-19T01:46:50.874Z,98.20
2017-07-19T01:49:18.359Z,98.20
2017-07-19T01:51:45.822Z,98.20
2017-07-19T01:54:13.271Z,98.20
2017-07-19T01:56:41.257Z,98.20
2017-07-19T01:59:08.714Z,98.20
2017-07-19T02:01:36.188Z,98.20
2017-07-19T02:04:03.772Z,98.20
2017-07-19T02:06:31.230Z,98.20
2017-07-19T02:08:58.690Z,98.20
2017-07-19T02:11:26.183Z,98.20
2017-07-19T02:13:54.030Z,98.20
2017-07-19T02:16:21.487Z,98.20
2017-07-19T02:18:48.980Z,98.20
2017-07-19T02:21:16.428Z,98.20
2017-07-19T02:23:43.869Z,98.20
2017-07-19T02:26:11.737Z,98.20
2017-07-19T02:28:39.177Z,98.20
2017-07-19T02:31:06.620Z,98.20
2017-07-19T02:33:34.092Z,98.20
2017-07-19T02:36:01.944Z,98.20
2017-07-19T02:38:29.385Z,98.20
2017-07-19T02:40:57.044Z,98.20
2017-07-19T02:43:24.484Z,98.20
2017-07-19T02:45:51.932Z,98.20
2017-07-19T02:48:20.432Z,98.20
2017-07-19T02:50:47.883Z,98.20
2017-07-19T02:53:15.328Z,98.20
2017-07-19T02:55:42.791Z,98.20
2017-07-19T02:58:10.259Z,98.20
2017-07-19T03:00:37.680Z,98.20
2017-07-19T03:03:05.156Z,98.20
2017-07-19T03:05:32.605Z,98.20
2017-07-19T03:08:00.049Z,98.20
2017-07-19T03:10:28.657Z,98.20
2017-07-19T03:12:56.096Z,98.20
2017-07-19T03:15:23.542Z,98.20
2017-07-19T03:17:51.197Z,98.20
2017-07-19T03:20:18.634Z,98.20
2017-07-19T03:22:49.064Z,98.20
2017-07-19T03:25:16.868Z,98.20
2017-07-19T03:27:44.317Z,98.20
2017-07-19T03:30:11.764Z,98.20
2017-07-19T03:32:39.244Z,98.20
2017-07-19T03:35:06.680Z,98.20
2017-07-19T03:37:34.129Z,98.20
2017-07-19T03:40:01.800Z,98.20
2017-07-19T03:42:29.249Z,98.20
2017-07-19T03:44:56.696Z,98.20
2017-07-19T03:47:24.474Z,98.20
2017-07-19T03:49:51.913Z,98.20
2017-07-19T03:52:19.357Z,98.20
2017-07-19T03:54:47.039Z,98.20
2017-07-19T03:57:14.496Z,98.20
2017-07-19T03:59:41.940Z,98.20
2017-07-19T04:02:09.421Z,98.20
2017-07-19T04:04:36.881Z,98.20
2017-07-19T04:07:04.321Z,98.20
2017-07-19T04:09:31.786Z,98.20
2017-07-19T04:11:59.477Z,98.20
2017-07-19T04:14:26.928Z,98.20
2017-07-19T04:16:54.803Z,98.20
2017-07-19T04:19:22.249Z,98.20
2017-07-19T04:21:49.700Z,98.20
2017-07-19T04:24:17.760Z,98.20
2017-07-19T04:26:45.601Z,98.20
2017-07-19T04:29:13.039Z,98.20
2017-07-19T04:31:40.527Z,98.20
2017-07-19T04:34:07.981Z,98.20
2017-07-19T04:36:35.431Z,98.20
2017-07-19T04:39:02.900Z,98.20
2017-07-19T04:41:30.737Z,98.20
2017-07-19T04:43:58.180Z,98.20
2017-07-19T04:46:25.665Z,98.20
2017-07-19T04:48:53.114Z,98.20
2017-07-19T04:51:20.562Z,98.20
2017-07-19T04:53:48.316Z,98.20
2017-07-19T04:56:15.763Z,98.20
2017-07-19T04:58:43.196Z,98.20
2017-07-19T05:01:10.685Z,98.20
2017-07-19T05:03:38.128Z,98.20
2017-07-19T05:06:05.572Z,98.20
2017-07-19T05:08:33.033Z,98.20
2017-07-19T05:11:00.476Z,98.20
2017-07-19T05:13:27.924Z,98.20
2017-07-19T05:15:55.721Z,98.20
2017-07-19T05:18:23.160Z,98.20
2017-07-19T05:20:50.604Z,98.20
2017-07-19T05:23:18.246Z,98.20
2017-07-19T05:25:45.679Z,98.20
2017-07-19T05:28:13.524Z,98.20
2017-07-19T05:30:41.003Z,98.20
2017-07-19T05:33:08.845Z,98.20
2017-07-19T05:35:36.303Z,98.20
2017-07-19T05:38:03.853Z,98.20
2017-07-19T05:40:31.296Z,98.20
2017-07-19T05:42:58.748Z,98.20
2017-07-19T05:45:26.412Z,98.20
2017-07-19T05:47:53.860Z,98.20
2017-07-19T05:50:21.300Z,98.20
2017-07-19T05:52:48.968Z,98.20
2017-07-19T05:55:16.444Z,98.20
2017-07-19T05:57:43.888Z,98.20
2017-07-19T06:00:11.360Z,98.20
2017-07-19T06:02:38.799Z,98.20
2017-07-19T06:05:06.231Z,98.20
2017-07-19T06:07:33.888Z,98.20
2017-07-19T06:10:01.334Z,98.20
2017-07-19T06:12:28.777Z,98.20
2017-07-19T06:14:56.259Z,98.20
2017-07-19T06:17:23.708Z,98.20
2017-07-19T06:19:51.139Z,98.20
2017-07-19T06:22:18.619Z,98.20
2017-07-19T06:24:46.055Z,98.20
2017-07-19T06:27:13.491Z,98.20
2017-07-19T06:29:41.552Z,98.20
2017-07-19T06:32:09.389Z,98.20
2017-07-19T06:34:36.833Z,98.20
2017-07-19T06:37:04.383Z,98.20
2017-07-19T06:39:31.835Z,98.20
2017-07-19T06:41:59.279Z,98.20
2017-07-19T06:44:26.765Z,98.20
2017-07-19T06:46:54.204Z,98.20
2017-07-19T06:49:21.647Z,98.20
2017-07-19T06:51:49.397Z,98.20
2017-07-19T06:54:16.843Z,98.20
2017-07-19T06:56:44.277Z,98.20
2017-07-19T06:59:12.407Z,98.20
2017-07-19T07:01:39.854Z,98.20
2017-07-19T07:04:07.297Z,98.20
2017-07-19T07:06:34.768Z,98.20
2017-07-19T07:09:02.212Z,98.20
2017-07-19T07:11:29.651Z,98.20
2017-07-19T07:13:57.223Z,98.20
2017-07-19T07:16:24.674Z,98.20
2017-07-19T07:18:52.113Z,98.20
2017-07-19T07:21:19.921Z,98.20
2017-07-19T07:23:48.052Z,98.20
2017-07-19T07:26:15.497Z,98.20
2017-07-19T07:28:42.956Z,98.20
2017-07-19T07:31:10.396Z,98.20
2017-07-19T07:33:37.839Z,98.20
2017-07-19T07:36:05.878Z,98.20
2017-07-19T07:38:33.314Z,98.20
2017-07-19T07:41:00.756Z,98.20
2017-07-19T07:43:28.232Z,98.20
2017-07-19T07:45:55.678Z,98.20
2017-07-19T07:48:23.119Z,98.20
2017-07-19T07:50:50.584Z,98.20
2017-07-19T07:53:18.033Z,98.20
2017-07-19T07:55:45.483Z,98.20
2017-07-19T07:58:12.967Z,98.20
2017-07-19T08:00:40.408Z,98.20
2017-07-19T08:03:07.848Z,98.20
2017-07-19T08:05:35.644Z,98.20
2017-07-19T08:08:03.091Z,98.20
2017-07-19T08:10:30.535Z,97.60
2017-07-19T08:12:58.222Z,97.20
2017-07-19T08:15:25.681Z,97.30
2017-07-19T08:17:53.120Z,97.30
2017-07-19T08:20:20.887Z,97.60
2017-07-19T08:22:48.336Z,96.90
2017-07-19T08:25:15.781Z,97.40
2017-07-19T08:27:43.232Z,97.10
2017-07-19T08:30:10.668Z,97.20
2017-07-19T08:32:38.112Z,96.40
2017-07-19T08:35:05.924Z,96.30
2017-07-19T08:37:33.369Z,95.90
2017-07-19T08:40:00.808Z,96.50
2017-07-19T08:42:28.288Z,95.70
2017-07-19T08:44:55.737Z,95.30
2017-07-19T08:47:23.174Z,95.50
2017-07-19T08:49:50.648Z,94.70
2017-07-19T08:52:18.089Z,94.20
2017-07-19T08:54:45.524Z,95.10
2017-07-19T08:57:12.998Z,95.10
2017-07-19T08:59:40.440Z,94.30
2017-07-19T09:02:07.884Z,94.90
2017-07-19T09:04:35.439Z,92.40
2017-07-19T09:07:02.884Z,91.40
2017-07-19T09:09:30.713Z,92.00
2017-07-19T09:11:58.372Z,92.00
2017-07-19T09:14:25.813Z,91.50
2017-07-19T09:16:53.340Z,91.00
2017-07-19T09:19:20.792Z,90.90
2017-07-19T09:21:48.224Z,91.00
2017-07-19T09:24:15.665Z,89.50
2017-07-19T09:26:43.221Z,89.00
2017-07-19T09:29:10.659Z,89.30
2017-07-19T09:31:38.104Z,88.80
2017-07-19T09:34:05.568Z,88.50
2017-07-19T09:36:33.012Z,88.60
2017-07-19T09:39:00.456Z,88.50
2017-07-19T09:41:27.924Z,88.80
2017-07-19T09:43:55.374Z,88.80
2017-07-19T09:46:22.816Z,88.20
2017-07-19T09:48:50.505Z,86.90
2017-07-19T09:51:17.951Z,87.80
2017-07-19T09:53:45.393Z,86.90
2017-07-19T09:56:13.092Z,87.00
2017-07-19T09:58:40.528Z,86.80
2017-07-19T10:01:07.970Z,87.20
2017-07-19T10:03:35.444Z,87.00
2017-07-19T10:06:02.885Z,88.20
2017-07-19T10:08:30.331Z,87.40
2017-07-19T10:10:58.010Z,87.80
2017-07-19T10:13:25.449Z,86.40
2017-07-19T10:15:52.892Z,85.90
2017-07-19T10:18:20.363Z,85.80
2017-07-19T10:20:47.802Z,86.40
2017-07-19T10:23:15.245Z,84.60
2017-07-19T10:25:42.717Z,86.00
2017-07-19T10:28:10.162Z,85.80
2017-07-19T10:30:37.599Z,85.40
2017-07-19T10:33:05.054Z,84.80
2017-07-19T10:35:32.497Z,85.10
2017-07-19T10:38:00.323Z,82.50
2017-07-19T10:40:28.084Z,82.50
2017-07-19T10:42:55.525Z,82.20
2017-07-19T10:45:22.968Z,82.10
2017-07-19T10:47:50.647Z,80.60
2017-07-19T10:50:18.095Z,80.80
2017-07-19T10:52:45.529Z,81.10
2017-07-19T10:55:13.224Z,80.70
2017-07-19T10:57:40.657Z,80.70
2017-07-19T11:00:08.111Z,80.70
2017-07-19T11:02:35.584Z,80.90
2017-07-19T11:05:03.024Z,81.20
2017-07-19T11:07:30.463Z,81.90
2017-07-19T11:09:58.223Z,79.80
2017-07-19T11:12:25.677Z,82.00
2017-07-19T11:14:53.116Z,82.30
2017-07-19T11:17:20.580Z,82.40
2017-07-19T11:19:48.024Z,82.80
2017-07-19T11:22:15.473Z,82.10
2017-07-19T11:24:43.307Z,81.40
2017-07-19T11:27:10.740Z,81.30
2017-07-19T11:29:38.184Z,81.10
2017-07-19T11:32:05.876Z,82.50
2017-07-19T11:34:33.314Z,81.40
2017-07-19T11:37:00.756Z,80.00
2017-07-19T11:39:28.299Z,80.40
2017-07-19T11:41:55.736Z,78.40
2017-07-19T11:44:23.184Z,77.80
2017-07-19T11:46:51.345Z,74.90
2017-07-19T11:49:19.184Z,74.30
2017-07-19T11:51:46.625Z,74.20
2017-07-19T11:54:14.113Z,72.80
2017-07-19T11:56:41.544Z,72.50
2017-07-19T11:59:08.985Z,70.70
2017-07-19T12:01:36.440Z,71.10
2017-07-19T12:04:03.876Z,73.00
2017-07-19T12:06:31.319Z,72.20
2017-07-19T12:08:58.879Z,70.60
2017-07-19T12:11:26.330Z,70.30
2017-07-19T12:13:53.766Z,69.00
2017-07-19T12:16:21.901Z,67.00
2017-07-19T12:18:49.350Z,67.00
2017-07-19T12:21:16.786Z,66.30
2017-07-19T12:23:44.281Z,66.20
2017-07-19T12:26:11.724Z,67.20
2017-07-19T12:28:39.169Z,67.60
2017-07-19T12:31:06.640Z,68.10
2017-07-19T12:33:34.083Z,67.00
2017-07-19T12:36:02.092Z,66.90
2017-07-19T12:38:29.948Z,65.40
2017-07-19T12:40:57.785Z,63.70
2017-07-19T12:43:25.224Z,63.70
2017-07-19T12:45:52.704Z,61.70
2017-07-19T12:48:20.147Z,61.70
2017-07-19T12:50:47.588Z,63.40
2017-07-19T12:53:15.263Z,61.50
2017-07-19T12:55:42.709Z,61.10
2017-07-19T12:58:10.152Z,60.80
2017-07-19T13:00:37.616Z,61.30
2017-07-19T13:03:05.059Z,61.90
2017-07-19T13:05:32.500Z,60.80
2017-07-19T13:07:59.968Z,61.20
2017-07-19T13:10:27.408Z,59.50
2017-07-19T13:12:54.848Z,57.90
2017-07-19T13:15:22.513Z,57.20
2017-07-19T13:17:49.953Z,56.60
2017-07-19T13:20:17.784Z,58.00
2017-07-19T13:22:45.549Z,58.00
2017-07-19T13:25:12.996Z,57.60
2017-07-19T13:27:40.432Z,58.40
2017-07-19T13:30:07.911Z,59.10
2017-07-19T13:32:35.365Z,59.70
2017-07-19T13:35:02.898Z,59.50
2017-07-19T13:37:30.346Z,61.20
2017-07-19T13:39:57.791Z,61.20
2017-07-19T13:42:25.244Z,59.90
2017-07-19T13:44:52.949Z,59.40
2017-07-19T13:47:20.401Z,59.60
2017-07-19T13:49:47.848Z,59.90
2017-07-19T13:52:15.329Z,62.00
2017-07-19T13:54:42.785Z,61.70
2017-07-19T13:57:10.225Z,63.40
2017-07-19T13:59:37.695Z,62.40
2017-07-19T14:02:05.133Z,63.20
2017-07-19T14:04:32.573Z,61.40
2017-07-19T14:07:00.249Z,62.20
2017-07-19T14:09:27.700Z,60.60
2017-07-19T14:11:55.137Z,59.00
2017-07-19T14:14:22.608Z,60.60
2017-07-19T14:16:50.041Z,60.20
2017-07-19T14:19:17.489Z,61.30
2017-07-19T14:21:45.187Z,59.80
2017-07-19T14:24:12.629Z,61.00
2017-07-19T14:26:40.071Z,60.80
2017-07-19T14:29:07.636Z,59.40
2017-07-19T14:31:35.081Z,61.10
2017-07-19T14:34:02.529Z,60.50
2017-07-19T14:36:30.001Z,63.70
2017-07-19T14:38:57.446Z,67.30
2017-07-19T14:41:24.889Z,67.40
2017-07-19T14:43:52.593Z,68.00
2017-07-19T14:46:20.025Z,69.20
2017-07-19T14:48:47.470Z,69.80
2017-07-19T14:51:15.042Z,70.00
2017-07-19T14:53:42.486Z,68.90
2017-07-19T14:56:09.932Z,70.50
2017-07-19T14:58:37.396Z,68.80
2017-07-19T15:01:04.847Z,70.50
2017-07-19T15:03:32.288Z,71.30
2017-07-19T15:05:59.767Z,71.40
2017-07-19T15:08:27.210Z,71.40
2017-07-19T15:10:54.652Z,71.20
2017-07-19T15:13:22.103Z,71.80
2017-07-19T15:15:49.544Z,71.30
2017-07-19T15:18:17.385Z,71.40
2017-07-19T15:20:45.129Z,71.40
2017-07-19T15:23:12.568Z,71.70
2017-07-19T15:25:40.012Z,72.10
2017-07-19T15:28:07.479Z,71.70
2017-07-19T15:30:34.928Z,71.80
2017-07-19T15:33:02.377Z,71.90
2017-07-19T15:35:29.927Z,72.10
2017-07-19T15:37:57.373Z,72.70
2017-07-19T15:40:24.856Z,73.00
2017-07-19T15:42:52.311Z,72.90
2017-07-19T15:45:19.757Z,72.60
2017-07-19T15:47:47.202Z,73.20
2017-07-19T15:50:14.677Z,73.50
2017-07-19T15:52:42.117Z,73.90
2017-07-19T15:55:09.552Z,74.00
2017-07-19T15:57:37.265Z,75.10
2017-07-19T16:00:04.700Z,75.40
2017-07-19T16:02:32.145Z,74.50
2017-07-19T16:04:59.949Z,75.10
2017-07-19T16:07:27.388Z,74.80
2017-07-19T16:09:54.838Z,75.00
2017-07-19T16:12:22.304Z,75.10
2017-07-19T16:14:49.736Z,75.10
2017-07-19T16:17:17.184Z,73.90
2017-07-19T16:19:44.769Z,75.70
2017-07-19T16:22:12.194Z,75.60
2017-07-19T16:24:39.641Z,76.20
2017-07-19T16:27:07.436Z,76.60
2017-07-19T16:29:34.885Z,76.70
2017-07-19T16:32:02.586Z,76.50
2017-07-19T16:34:30.023Z,76.90
2017-07-19T16:36:57.464Z,76.40
2017-07-19T16:39:24.905Z,76.80
2017-07-19T16:41:52.680Z,77.30
2017-07-19T16:44:20.117Z,77.90
2017-07-19T16:46:47.568Z,77.90
2017-07-19T16:49:15.280Z,77.90
2017-07-19T16:51:43.114Z,79.20
2017-07-19T16:54:10.556Z,79.20
2017-07-19T16:56:38.104Z,79.40
2017-07-19T16:59:05.535Z,79.00
2017-07-19T17:01:32.977Z,78.90
2017-07-19T17:04:00.705Z,79.00
2017-07-19T17:06:28.144Z,79.70
2017-07-19T17:08:55.591Z,79.50
2017-07-19T17:11:23.064Z,79.50
2017-07-19T17:13:50.515Z,79.40
2017-07-19T17:16:17.961Z,80.00
2017-07-19T17:18:45.429Z,79.90
2017-07-19T17:21:12.868Z,79.20
2017-07-19T17:23:40.587Z,79.30
2017-07-19T17:26:08.049Z,79.60
2017-07-19T17:28:35.489Z,79.60
2017-07-19T17:31:03.321Z,80.00
2017-07-19T17:33:30.786Z,80.00
2017-07-19T17:35:58.511Z,80.30
2017-07-19T17:38:25.945Z,80.40
2017-07-19T17:40:53.669Z,80.80
2017-07-19T17:43:21.114Z,80.80
2017-07-19T17:45:48.569Z,80.50
2017-07-19T17:48:16.328Z,81.30
2017-07-19T17:50:43.773Z,81.70
2017-07-19T17:53:11.214Z,81.70
2017-07-19T17:55:38.885Z,81.40
2017-07-19T17:58:06.328Z,81.30
2017-07-19T18:00:33.778Z,81.40
2017-07-19T18:03:01.344Z,81.30
2017-07-19T18:05:28.828Z,81.30
2017-07-19T18:07:56.269Z,81.60
2017-07-19T18:10:23.733Z,81.60
2017-07-19T18:12:51.173Z,81.40
2017-07-19T18:15:18.612Z,81.80
2017-07-19T18:17:46.077Z,82.00
2017-07-19T18:20:13.854Z,82.30
2017-07-19T18:22:41.301Z,82.50
2017-07-19T18:25:08.788Z,82.50
2017-07-19T18:27:36.279Z,82.70
2017-07-19T18:30:03.716Z,82.80
2017-07-19T18:32:31.558Z,82.80
2017-07-19T18:34:59.212Z,82.90
2017-07-19T18:37:26.668Z,83.10
2017-07-19T18:39:54.146Z,83.10
2017-07-19T18:42:21.981Z,83.40
2017-07-19T18:44:49.430Z,83.40
2017-07-19T18:47:17.165Z,83.50
2017-07-19T18:49:44.641Z,84.00
2017-07-19T18:52:12.316Z,84.20
2017-07-19T18:54:39.768Z,84.70
2017-07-19T18:57:07.215Z,84.60
2017-07-19T18:59:34.768Z,84.50
2017-07-19T19:02:02.220Z,84.60
2017-07-19T19:04:29.664Z,84.50
2017-07-19T19:06:57.139Z,84.60
2017-07-19T19:09:24.608Z,84.90
2017-07-19T19:11:52.069Z,85.00
2017-07-19T19:14:19.582Z,85.00
2017-07-19T19:16:47.153Z,85.00
2017-07-19T19:19:14.662Z,85.00
2017-07-19T19:21:42.559Z,85.20
2017-07-19T19:24:10.070Z,85.20
2017-07-19T19:26:37.600Z,85.30
2017-07-19T19:29:05.159Z,85.50
2017-07-19T19:31:32.600Z,85.60
2017-07-19T19:34:00.062Z,86.10
2017-07-19T19:36:27.572Z,86.60
2017-07-19T19:38:55.415Z,87.10
2017-07-19T19:41:23.265Z,87.40
2017-07-19T19:43:50.768Z,87.40
2017-07-19T19:46:18.217Z,87.60
2017-07-19T19:48:46.232Z,87.90
2017-07-19T19:51:13.867Z,88.20
2017-07-19T19:53:41.318Z,88.60
2017-07-19T19:56:08.803Z,88.90
2017-07-19T19:58:36.288Z,88.90
2017-07-19T20:01:04.125Z,88.70
2017-07-19T20:03:31.582Z,88.60
2017-07-19T20:05:59.045Z,95.90
2017-07-19T20:08:26.497Z,98.20
2017-07-19T20:10:53.947Z,81.60
2017-07-19T20:13:21.430Z,81.60
2017-07-19T20:15:48.884Z,81.60
2017-07-19T20:40:39.013Z,81.60
2017-07-19T20:43:06.486Z,81.60
2017-07-19T20:45:34.072Z,81.60
2017-07-19T20:48:01.528Z,81.60
2017-07-19T20:50:28.994Z,81.60
2017-07-19T20:52:56.466Z,81.60
2017-07-19T20:55:24.324Z,81.60
2017-07-19T20:57:51.789Z,81.60
2017-07-19T21:00:19.242Z,81.60
2017-07-19T21:02:46.703Z,81.60
2017-07-19T21:05:14.585Z,81.60
2017-07-19T21:07:42.433Z,81.60
2017-07-19T21:10:10.290Z,81.60
2017-07-19T21:12:38.045Z,81.60
2017-07-19T21:15:05.492Z,81.60
2017-07-19T21:17:32.946Z,81.60
2017-07-19T21:20:00.717Z,81.60
2017-07-19T21:22:33.996Z,81.60
2017-07-19T21:25:01.469Z,81.60
2017-07-19T21:27:28.960Z,81.60
2017-07-19T21:29:56.408Z,81.60
2017-07-19T21:32:24.256Z,81.60
2017-07-19T21:34:52.410Z,81.60
2017-07-19T21:37:19.865Z,81.60
2017-07-19T21:39:47.320Z,81.60
2017-07-19T21:42:14.791Z,81.60
2017-07-19T21:44:42.245Z,81.60
2017-07-19T21:47:09.692Z,81.60
2017-07-19T21:49:37.181Z,81.60
2017-07-19T21:52:04.628Z,81.60
2017-07-19T21:54:32.086Z,81.60
2017-07-19T21:56:59.651Z,81.60
2017-07-19T21:59:27.097Z,81.60
2017-07-19T22:01:54.548Z,81.60
2017-07-19T22:04:22.428Z,81.60
2017-07-19T22:06:49.886Z,81.60
2017-07-19T22:09:17.341Z,81.60
2017-07-19T22:11:44.829Z,81.60
2017-07-19T22:14:12.289Z,81.60
2017-07-19T22:16:39.741Z,81.60
2017-07-19T22:19:07.473Z,81.60
2017-07-19T22:21:34.928Z,81.60
2017-07-19T22:24:02.376Z,81.60
2017-07-19T22:26:29.956Z,81.60
2017-07-19T22:28:57.412Z,81.60
2017-07-19T22:31:24.876Z,81.60
2017-07-19T22:33:52.628Z,81.60
2017-07-19T22:36:20.085Z,81.60
2017-07-19T22:38:48.441Z,81.60
2017-07-19T22:41:15.912Z,81.60
2017-07-19T22:43:43.372Z,81.60
2017-07-19T22:46:10.824Z,81.60
2017-07-19T22:48:38.391Z,81.60
2017-07-19T22:51:05.836Z,81.60
2017-07-19T22:53:33.285Z,81.60
2017-07-19T22:56:00.976Z,81.60
2017-07-19T22:58:28.425Z,81.60
2017-07-19T23:00:55.872Z,81.60
2017-07-19T23:03:23.550Z,81.60
2017-07-19T23:05:51.000Z,81.60
2017-07-19T23:08:18.445Z,99.90
2017-07-19T23:10:45.915Z,0.50
2017-07-19T23:13:13.351Z,1.00
2017-07-19T23:15:40.795Z,1.60
2017-07-19T23:18:08.256Z,2.20
2017-07-19T23:20:35.709Z,4.40
2017-07-19T23:23:03.149Z,5.70
2017-07-19T23:25:30.632Z,6.60
2017-07-19T23:27:58.073Z,7.40
2017-07-19T23:30:25.511Z,8.00
2017-07-19T23:32:52.988Z,9.10
2017-07-19T23:35:20.440Z,9.60
2017-07-19T23:37:47.890Z,10.50
2017-07-19T23:40:15.681Z,11.40
2017-07-19T23:42:43.124Z,11.60
2017-07-19T23:45:10.573Z,12.40
2017-07-19T23:47:38.037Z,14.10
2017-07-19T23:50:05.491Z,15.80
2017-07-19T23:52:32.931Z,15.60
2017-07-19T23:55:00.722Z,16.20
2017-07-19T23:57:28.172Z,18.00
2017-07-19T23:59:55.616Z,19.30
